Time;durP1;ratioP1;P1;durP2;ratioP2;P2;SDS_P1;SDS_P2;PMS_P1;PMS_P2;Temp;Humidity;BMP_temperature;BMP_pressure;BME280_temperature;BME280_humidity;BME280_pressure;Samples;Min_cycle;Max_cycle;Signal;HPM_P1;HPM_P2
2021/08/26 00:05:40;;;;;;;35.67;6.40;;;;;;;;;;5110189;28;20403;-82
2021/08/26 00:07:05;;;;;;;28.25;5.45;;;;;;;;;;5097548;28;20039;-82
2021/08/26 00:09:32;;;;;;;32.10;6.63;;;;;;;;;;5095899;28;20056;-82
2021/08/26 00:11:59;;;;;;;27.98;6.35;;;;;;;;;;5128866;27;20162;-82
2021/08/26 00:14:25;;;;;;;35.80;7.47;;;;;;;;;;5098184;28;20048;-81
2021/08/26 00:16:52;;;;;;;31.10;5.80;;;;;;;;;;5108642;28;20047;-82
2021/08/26 00:19:20;;;;;;;36.30;6.32;;;;;;;;;;5140926;27;20432;-82
2021/08/26 00:21:47;;;;;;;31.63;6.03;;;;;;;;;;5096099;28;20079;-82
2021/08/26 00:24:14;;;;;;;25.42;6.38;;;;;;;;;;5096967;28;20047;-82
2021/08/26 00:26:40;;;;;;;28.58;5.28;;;;;;;;;;5095950;28;20071;-82
2021/08/26 00:29:07;;;;;;;37.35;6.20;;;;;;;;;;5095377;28;20278;-81
2021/08/26 00:31:34;;;;;;;35.42;5.90;;;;;;;;;;5094728;28;20086;-81
2021/08/26 00:34:00;;;;;;;34.60;5.20;;;;;;;;;;5094543;28;20128;-81
2021/08/26 00:36:27;;;;;;;39.88;6.38;;;;;;;;;;5096868;28;20141;-82
2021/08/26 00:38:53;;;;;;;28.45;5.45;;;;;;;;;;5096665;28;20074;-82
2021/08/26 00:41:20;;;;;;;32.47;5.20;;;;;;;;;;5096370;28;20047;-81
2021/08/26 00:43:46;;;;;;;24.33;4.88;;;;;;;;;;5097117;28;20051;-82
2021/08/26 00:46:16;;;;;;;43.20;6.25;;;;;;;;;;5095655;28;20063;-81
2021/08/26 00:48:43;;;;;;;20.98;5.05;;;;;;;;;;5097305;28;20059;-81
2021/08/26 00:51:10;;;;;;;28.52;5.80;;;;;;;;;;5097392;28;20078;-81
2021/08/26 00:53:39;;;;;;;30.10;5.13;;;;;;;;;;5100913;28;20528;-82
2021/08/26 00:56:15;;;;;;;24.13;5.28;;;;;;;;;;5099786;28;20148;-81
2021/08/26 00:58:51;;;;;;;28.42;5.95;;;;;;;;;;5099905;28;20129;-81
2021/08/26 01:01:21;;;;;;;29.80;5.05;;;;;;;;;;5100009;28;20067;-81
2021/08/26 01:03:52;;;;;;;26.48;4.97;;;;;;;;;;5100013;28;20134;-81
2021/08/26 01:06:37;;;;;;;34.42;5.63;;;;;;;;;;5099665;28;20109;-81
2021/08/26 01:09:04;;;;;;;20.00;5.38;;;;;;;;;;5100689;28;20056;-81
2021/08/26 01:11:32;;;;;;;30.30;5.05;;;;;;;;;;5100144;28;20052;-81
2021/08/26 01:13:59;;;;;;;34.53;6.13;;;;;;;;;;5099289;28;20409;-82
2021/08/26 01:16:29;;;;;;;40.17;6.28;;;;;;;;;;5099327;28;20075;-82
2021/08/26 01:18:56;;;;;;;29.83;5.93;;;;;;;;;;5101479;28;20051;-81
2021/08/26 01:21:23;;;;;;;26.77;5.68;;;;;;;;;;5133886;27;20048;-81
2021/08/26 01:24:13;;;;;;;31.85;5.53;;;;;;;;;;5133651;27;20048;-82
2021/08/26 01:26:45;;;;;;;29.67;5.43;;;;;;;;;;5100606;28;20145;-81
2021/08/26 01:29:13;;;;;;;35.35;5.63;;;;;;;;;;5115809;28;20050;-81
2021/08/26 01:31:40;;;;;;;37.67;6.78;;;;;;;;;;5115209;28;20095;-81
2021/08/26 01:34:06;;;;;;;33.75;5.20;;;;;;;;;;5114554;28;20040;-81
2021/08/26 01:36:35;;;;;;;28.88;5.32;;;;;;;;;;5110995;28;20115;-81
2021/08/26 01:39:06;;;;;;;34.55;6.75;;;;;;;;;;5102630;28;20044;-81
2021/08/26 01:41:45;;;;;;;34.50;5.45;;;;;;;;;;5132609;27;20469;-82
2021/08/26 01:44:24;;;;;;;29.98;5.50;;;;;;;;;;5097879;28;20051;-81
2021/08/26 01:47:15;;;;;;;34.38;6.07;;;;;;;;;;5102799;28;20044;-81
2021/08/26 01:49:43;;;;;;;31.38;5.63;;;;;;;;;;5107827;28;20517;-80
2021/08/26 01:52:10;;;;;;;42.33;6.00;;;;;;;;;;5107597;28;20242;-80
2021/08/26 01:54:40;;;;;;;29.52;5.38;;;;;;;;;;5098108;28;20077;-81
2021/08/26 01:57:06;;;;;;;38.00;5.13;;;;;;;;;;5136990;27;20143;-81
2021/08/26 01:59:34;;;;;;;26.50;5.07;;;;;;;;;;5115462;28;20055;-81
2021/08/26 02:02:01;;;;;;;31.88;5.47;;;;;;;;;;5110594;28;20044;-81
2021/08/26 02:04:27;;;;;;;22.95;5.63;;;;;;;;;;5101818;28;20085;-81
2021/08/26 02:06:54;;;;;;;37.83;5.50;;;;;;;;;;5098984;28;20428;-81
2021/08/26 02:09:20;;;;;;;39.17;5.60;;;;;;;;;;5107399;28;20086;-82
2021/08/26 02:11:47;;;;;;;32.45;5.55;;;;;;;;;;5113835;28;20077;-82
2021/08/26 02:14:13;;;;;;;35.40;5.82;;;;;;;;;;5132556;27;20072;-82
2021/08/26 02:16:40;;;;;;;39.97;5.90;;;;;;;;;;5098345;28;20040;-81
2021/08/26 02:19:25;;;;;;;35.75;5.97;;;;;;;;;;5098296;28;20110;-82
2021/08/26 02:21:51;;;;;;;30.20;5.38;;;;;;;;;;5102369;28;20079;-80
2021/08/26 02:24:18;;;;;;;26.75;5.25;;;;;;;;;;5100147;28;20048;-81
2021/08/26 02:26:44;;;;;;;43.92;6.03;;;;;;;;;;5096886;28;20048;-81
2021/08/26 02:29:11;;;;;;;31.30;6.50;;;;;;;;;;5097130;28;20052;-81
2021/08/26 02:31:37;;;;;;;37.67;5.68;;;;;;;;;;5097343;28;20094;-81
2021/08/26 02:34:03;;;;;;;23.02;5.13;;;;;;;;;;5097024;28;20055;-82
2021/08/26 02:36:30;;;;;;;26.48;6.50;;;;;;;;;;5096855;28;20407;-81
2021/08/26 02:38:57;;;;;;;35.65;5.35;;;;;;;;;;5096992;28;20083;-81
2021/08/26 02:41:23;;;;;;;30.33;5.20;;;;;;;;;;5099085;28;20052;-81
2021/08/26 02:43:50;;;;;;;21.10;5.30;;;;;;;;;;5097528;28;20105;-81
2021/08/26 02:46:16;;;;;;;28.80;5.13;;;;;;;;;;5135305;27;20120;-82
2021/08/26 02:48:43;;;;;;;32.30;6.50;;;;;;;;;;5100725;28;20147;-82
2021/08/26 02:51:09;;;;;;;33.17;6.18;;;;;;;;;;5100976;28;20075;-82
2021/08/26 02:53:39;;;;;;;37.95;5.45;;;;;;;;;;5103422;28;20091;-81
2021/08/26 02:56:06;;;;;;;34.67;5.65;;;;;;;;;;5110015;28;20052;-81
2021/08/26 02:58:32;;;;;;;29.80;5.00;;;;;;;;;;5109197;28;20074;-81
2021/08/26 03:00:59;;;;;;;30.48;5.70;;;;;;;;;;5112126;28;20044;-81
2021/08/26 03:03:26;;;;;;;32.28;6.25;;;;;;;;;;5113302;28;20085;-81
2021/08/26 03:05:53;;;;;;;20.33;4.63;;;;;;;;;;5106551;28;20314;-82
2021/08/26 03:08:20;;;;;;;24.80;5.78;;;;;;;;;;5097440;28;20121;-81
2021/08/26 03:10:47;;;;;;;26.65;5.40;;;;;;;;;;5097945;28;20059;-82
2021/08/26 03:13:13;;;;;;;39.15;5.28;;;;;;;;;;5124648;27;20144;-82
2021/08/26 03:15:40;;;;;;;32.08;6.05;;;;;;;;;;5110729;28;20088;-82
2021/08/26 03:18:09;;;;;;;43.83;5.80;;;;;;;;;;5110400;28;20128;-82
2021/08/26 03:20:38;;;;;;;27.42;5.75;;;;;;;;;;5111043;28;20083;-82
2021/08/26 03:23:07;;;;;;;29.98;5.78;;;;;;;;;;5086070;28;20427;-81
2021/08/26 03:25:44;;;;;;;40.58;5.70;;;;;;;;;;5086642;28;20044;-81
2021/08/26 03:28:11;;;;;;;31.35;5.43;;;;;;;;;;5081634;28;20063;-82
2021/08/26 03:30:37;;;;;;;28.70;6.18;;;;;;;;;;5077720;28;20052;-82
2021/08/26 03:33:10;;;;;;;33.42;5.88;;;;;;;;;;5076226;28;20079;-81
2021/08/26 03:35:37;;;;;;;35.03;5.30;;;;;;;;;;5111413;28;20394;-81
2021/08/26 03:38:06;;;;;;;28.92;6.20;;;;;;;;;;5080663;28;20052;-82
2021/08/26 03:40:36;;;;;;;41.85;5.88;;;;;;;;;;5078111;28;20118;-81
2021/08/26 03:43:02;;;;;;;26.15;5.57;;;;;;;;;;5077719;28;20076;-81
2021/08/26 03:45:29;;;;;;;23.33;6.10;;;;;;;;;;5108826;28;20199;-81
2021/08/26 03:47:59;;;;;;;29.92;5.60;;;;;;;;;;5076011;28;20087;-81
2021/08/26 03:50:26;;;;;;;29.27;6.40;;;;;;;;;;5092465;28;20059;-81
2021/08/26 03:52:52;;;;;;;32.35;7.10;;;;;;;;;;5097174;28;20052;-81
2021/08/26 03:55:19;;;;;;;38.00;8.18;;;;;;;;;;5096557;28;20079;-80
2021/08/26 03:57:48;;;;;;;24.27;5.97;;;;;;;;;;5096502;28;20109;-82
2021/08/26 04:00:15;;;;;;;35.25;6.00;;;;;;;;;;5097128;28;20339;-81
2021/08/26 04:02:42;;;;;;;26.27;4.88;;;;;;;;;;5095268;28;20098;-81
2021/08/26 04:05:18;;;;;;;27.85;5.50;;;;;;;;;;5097680;28;20216;-82
2021/08/26 04:07:44;;;;;;;33.33;6.45;;;;;;;;;;5095645;28;20047;-81
2021/08/26 04:10:11;;;;;;;29.88;5.55;;;;;;;;;;5097381;28;20537;-82
2021/08/26 04:12:38;;;;;;;25.58;6.50;;;;;;;;;;5104964;28;20159;-82
2021/08/26 04:15:05;;;;;;;29.05;6.10;;;;;;;;;;5108645;28;20109;-81
2021/08/26 04:17:31;;;;;;;28.02;5.13;;;;;;;;;;5131632;27;20048;-81
2021/08/26 04:19:58;;;;;;;28.88;5.72;;;;;;;;;;5097965;28;20056;-82
2021/08/26 04:22:28;;;;;;;63.22;7.15;;;;;;;;;;5096401;28;20048;-82
2021/08/26 04:24:55;;;;;;;54.10;6.40;;;;;;;;;;5093684;28;20067;-81
2021/08/26 04:27:24;;;;;;;38.63;6.32;;;;;;;;;;5094759;28;20125;-82
2021/08/26 04:29:51;;;;;;;27.55;5.10;;;;;;;;;;5095235;28;20555;-81
2021/08/26 04:32:17;;;;;;;27.85;5.70;;;;;;;;;;5094630;28;20245;-82
2021/08/26 04:34:49;;;;;;;36.92;6.65;;;;;;;;;;5096362;28;20056;-82
2021/08/26 04:37:15;;;;;;;37.78;6.18;;;;;;;;;;5109785;28;20101;-82
2021/08/26 04:39:41;;;;;;;33.90;6.38;;;;;;;;;;5111521;28;20051;-82
2021/08/26 04:42:15;;;;;;;33.25;6.68;;;;;;;;;;5106821;28;20060;-81
2021/08/26 04:44:41;;;;;;;41.90;7.35;;;;;;;;;;5110959;28;20048;-83
2021/08/26 04:47:07;;;;;;;34.45;6.68;;;;;;;;;;5109800;28;20103;-81
2021/08/26 04:49:46;;;;;;;33.58;6.32;;;;;;;;;;5093838;28;20059;-82
2021/08/26 04:52:13;;;;;;;36.15;6.07;;;;;;;;;;5095145;28;20071;-82
2021/08/26 04:54:40;;;;;;;31.05;5.47;;;;;;;;;;5092524;28;20040;-81
2021/08/26 04:57:07;;;;;;;41.45;7.05;;;;;;;;;;5094720;28;20048;-81
2021/08/26 04:59:33;;;;;;;33.83;6.45;;;;;;;;;;5092390;28;20048;-81
2021/08/26 05:02:06;;;;;;;38.65;6.18;;;;;;;;;;5092483;28;20048;-81
2021/08/26 05:04:36;;;;;;;34.83;6.00;;;;;;;;;;5092156;28;20123;-81
2021/08/26 05:07:03;;;;;;;37.25;6.95;;;;;;;;;;5097873;28;20028;-81
2021/08/26 05:09:29;;;;;;;32.97;6.47;;;;;;;;;;5142479;27;20060;-82
2021/08/26 05:11:58;;;;;;;42.50;6.60;;;;;;;;;;5105028;28;20060;-82
2021/08/26 05:14:34;;;;;;;31.15;6.90;;;;;;;;;;5127830;27;20132;-82
2021/08/26 05:17:01;;;;;;;;;;;;;;;;;;5095216;28;20051;-80
2021/08/26 05:19:27;;;;;;;35.17;6.45;;;;;;;;;;5102270;28;19912;-81
2021/08/26 05:22:00;;;;;;;35.67;6.18;;;;;;;;;;5105631;28;20079;-81
2021/08/26 05:24:26;;;;;;;26.65;5.72;;;;;;;;;;5127528;27;20052;-81
2021/08/26 05:26:53;;;;;;;48.50;7.72;;;;;;;;;;5083102;28;20110;-81
2021/08/26 05:29:20;;;;;;;42.50;6.28;;;;;;;;;;5082806;28;20048;-81
2021/08/26 05:31:46;;;;;;;32.25;6.63;;;;;;;;;;5115494;28;20049;-81
2021/08/26 05:34:13;;;;;;;48.28;6.25;;;;;;;;;;5126905;27;20405;-81
2021/08/26 05:36:39;;;;;;;43.55;6.97;;;;;;;;;;5093226;28;20440;-81
2021/08/26 05:39:06;;;;;;;26.17;5.95;;;;;;;;;;5081703;28;20444;-81
2021/08/26 05:41:33;;;;;;;46.42;6.05;;;;;;;;;;5083931;28;20045;-81
2021/08/26 05:43:59;;;;;;;29.35;5.18;;;;;;;;;;5086445;28;20133;-81
2021/08/26 05:46:38;;;;;;;38.35;6.47;;;;;;;;;;5096689;28;20052;-82
2021/08/26 05:49:04;;;;;;;35.22;5.53;;;;;;;;;;5085133;28;20112;-81
2021/08/26 05:51:36;;;;;;;36.10;5.93;;;;;;;;;;5096927;28;20044;-82
2021/08/26 05:54:02;;;;;;;31.20;6.05;;;;;;;;;;5094965;28;20052;-81
2021/08/26 05:56:29;;;;;;;36.72;6.68;;;;;;;;;;5127138;27;20223;-81
2021/08/26 05:58:56;;;;;;;45.10;7.03;;;;;;;;;;5091104;28;20059;-81
2021/08/26 06:01:26;;;;;;;33.22;6.47;;;;;;;;;;5073417;28;20048;-82
2021/08/26 06:03:57;;;;;;;39.13;6.22;;;;;;;;;;5076757;28;20179;-81
2021/08/26 06:06:23;;;;;;;26.13;5.72;;;;;;;;;;5075434;28;20051;-81
2021/08/26 06:08:50;;;;;;;37.00;6.05;;;;;;;;;;5073423;28;20140;-80
2021/08/26 06:11:18;;;;;;;34.75;5.50;;;;;;;;;;5075921;28;20075;-81
2021/08/26 06:13:44;;;;;;;29.40;5.07;;;;;;;;;;5076488;28;20080;-81
2021/08/26 06:16:11;;;;;;;46.80;5.72;;;;;;;;;;5105983;28;20052;-81
2021/08/26 06:18:37;;;;;;;34.72;5.05;;;;;;;;;;5085528;28;20074;-81
2021/08/26 06:21:04;;;;;;;33.65;6.45;;;;;;;;;;5103667;28;20058;-80
2021/08/26 06:23:30;;;;;;;33.50;5.47;;;;;;;;;;5082887;28;20044;-81
2021/08/26 06:25:57;;;;;;;31.67;5.30;;;;;;;;;;5076341;28;20049;-81
2021/08/26 06:28:27;;;;;;;28.45;4.90;;;;;;;;;;5077969;28;20110;-82
2021/08/26 06:30:54;;;;;;;31.13;5.43;;;;;;;;;;5077108;28;20056;-80
2021/08/26 06:33:20;;;;;;;20.55;4.60;;;;;;;;;;5074365;28;20277;-82
2021/08/26 06:35:50;;;;;;;28.60;4.80;;;;;;;;;;5074440;28;20079;-82
2021/08/26 06:38:17;;;;;;;25.00;4.43;;;;;;;;;;5075521;28;20080;-82
2021/08/26 06:40:43;;;;;;;24.40;5.38;;;;;;;;;;5077007;28;20052;-83
2021/08/26 06:43:10;;;;;;;32.63;5.00;;;;;;;;;;5075766;28;20060;-82
2021/08/26 06:45:39;;;;;;;24.80;4.53;;;;;;;;;;5077009;28;20148;-81
2021/08/26 06:48:06;;;;;;;23.27;4.40;;;;;;;;;;5072935;28;20052;-81
2021/08/26 06:50:32;;;;;;;40.92;5.97;;;;;;;;;;5072438;28;20095;-81
2021/08/26 06:52:59;;;;;;;25.52;4.43;;;;;;;;;;5071679;28;20048;-81
2021/08/26 06:55:26;;;;;;;22.77;4.13;;;;;;;;;;5105625;28;20079;-80
2021/08/26 06:57:52;;;;;;;24.85;4.82;;;;;;;;;;5075150;28;20041;-82
2021/08/26 07:00:19;;;;;;;24.08;4.65;;;;;;;;;;5076426;28;20367;-81
2021/08/26 07:02:46;;;;;;;22.38;4.65;;;;;;;;;;5084404;28;20125;-82
2021/08/26 07:05:12;;;;;;;32.38;4.82;;;;;;;;;;5084652;28;20053;-82
2021/08/26 07:07:39;;;;;;;29.98;5.13;;;;;;;;;;5099153;28;20183;-80
2021/08/26 07:10:06;;;;;;;25.75;4.97;;;;;;;;;;5104107;28;20086;-81
2021/08/26 07:12:33;;;;;;;28.25;5.43;;;;;;;;;;5103971;28;20055;-80
2021/08/26 07:15:00;;;;;;;24.50;4.95;;;;;;;;;;5097478;28;20474;-82
2021/08/26 07:17:26;;;;;;;24.17;4.40;;;;;;;;;;5094498;28;20052;-81
2021/08/26 07:19:53;;;;;;;26.15;4.55;;;;;;;;;;5090157;28;20047;-80
2021/08/26 07:22:19;;;;;;;25.17;5.00;;;;;;;;;;5090657;28;20048;-82
2021/08/26 07:24:46;;;;;;;31.90;5.72;;;;;;;;;;5091754;28;20052;-81
2021/08/26 07:27:12;;;;;;;21.95;4.65;;;;;;;;;;5090762;28;20211;-81
2021/08/26 07:29:39;;;;;;;33.03;5.88;;;;;;;;;;5091528;28;20688;-82
2021/08/26 07:32:07;;;;;;;28.02;5.93;;;;;;;;;;5091657;28;20129;-81
2021/08/26 07:34:40;;;;;;;31.90;5.55;;;;;;;;;;5125738;27;20040;-81
2021/08/26 07:37:08;;;;;;;32.90;5.90;;;;;;;;;;5105055;28;20465;-81
2021/08/26 07:39:35;;;;;;;21.73;5.95;;;;;;;;;;5098674;28;20051;-82
2021/08/26 07:42:10;;;;;;;27.20;5.22;;;;;;;;;;5094029;28;20048;-82
2021/08/26 07:44:37;;;;;;;24.73;5.00;;;;;;;;;;5106011;28;20047;-84
2021/08/26 07:47:04;;;;;;;29.88;5.28;;;;;;;;;;5094709;28;20568;-82
2021/08/26 07:49:33;;;;;;;36.85;5.68;;;;;;;;;;5127236;27;20047;-83
2021/08/26 07:52:03;;;;;;;33.33;5.63;;;;;;;;;;5093233;28;20490;-83
2021/08/26 07:54:29;;;;;;;26.75;4.63;;;;;;;;;;5092279;28;20125;-82
2021/08/26 07:56:57;;;;;;;28.70;5.30;;;;;;;;;;5106430;28;20077;-83
2021/08/26 07:59:24;;;;;;;23.02;4.95;;;;;;;;;;5104593;28;20244;-83
2021/08/26 08:01:50;;;;;;;26.20;4.63;;;;;;;;;;5076102;28;20068;-83
2021/08/26 08:04:20;;;;;;;26.50;5.00;;;;;;;;;;5074439;28;20168;-83
2021/08/26 08:06:47;;;;;;;23.52;5.13;;;;;;;;;;5085207;28;20102;-83
2021/08/26 08:09:14;;;;;;;30.00;4.82;;;;;;;;;;5096249;28;20424;-81
2021/08/26 08:11:44;;;;;;;24.38;4.93;;;;;;;;;;5092495;28;20059;-80
2021/08/26 08:14:10;;;;;;;28.63;5.57;;;;;;;;;;5126700;27;20319;-82
2021/08/26 08:16:37;;;;;;;26.08;5.00;;;;;;;;;;5090883;28;20356;-83
2021/08/26 08:19:04;;;;;;;28.98;5.25;;;;;;;;;;5075017;28;20048;-82
2021/08/26 08:21:30;;;;;;;26.63;5.45;;;;;;;;;;5087971;28;20064;-82
2021/08/26 08:23:57;;;;;;;32.67;5.38;;;;;;;;;;5084467;28;20052;-81
2021/08/26 08:26:25;;;;;;;27.83;5.43;;;;;;;;;;5073095;28;20048;-82
2021/08/26 08:28:51;;;;;;;32.05;5.13;;;;;;;;;;5070608;28;20079;-80
2021/08/26 08:31:18;;;;;;;28.40;6.35;;;;;;;;;;5071771;28;20044;-81
2021/08/26 08:33:46;;;;;;;29.85;5.20;;;;;;;;;;5068554;28;20571;-81
2021/08/26 08:36:14;;;;;;;25.10;5.05;;;;;;;;;;5082550;28;20101;-81
2021/08/26 08:38:40;;;;;;;27.08;5.07;;;;;;;;;;5091714;28;20055;-82
2021/08/26 08:41:07;;;;;;;21.52;4.55;;;;;;;;;;5090334;28;20052;-80
2021/08/26 08:43:35;;;;;;;26.42;5.72;;;;;;;;;;5101986;28;20151;-83
2021/08/26 08:46:07;;;;;;;39.03;6.30;;;;;;;;;;5110150;28;20067;-86
2021/08/26 08:48:34;;;;;;;29.90;6.50;;;;;;;;;;5109144;28;20269;-83
2021/08/26 08:51:01;;;;;;;31.73;5.93;;;;;;;;;;5105680;28;20040;-81
2021/08/26 08:53:29;;;;;;;29.20;5.55;;;;;;;;;;5094472;28;20048;-81
2021/08/26 08:55:57;;;;;;;41.17;6.07;;;;;;;;;;5088199;28;20048;-80
2021/08/26 08:58:27;;;;;;;31.20;6.10;;;;;;;;;;5079636;28;20040;-80
2021/08/26 09:00:56;;;;;;;40.10;10.63;;;;;;;;;;5064203;28;20392;-80
2021/08/26 09:03:23;;;;;;;27.00;5.55;;;;;;;;;;5067613;28;20063;-80
2021/08/26 09:06:00;;;;;;;27.20;4.10;;;;;;;;;;5099132;28;20088;-79
2021/08/26 09:08:27;;;;;;;18.42;3.33;;;;;;;;;;5067306;28;20403;-79
2021/08/26 09:11:10;;;;;;;17.15;2.75;;;;;;;;;;5069143;28;20060;-80
2021/08/26 09:13:37;;;;;;;13.05;2.70;;;;;;;;;;5071348;28;20204;-79
2021/08/26 09:16:04;;;;;;;16.73;2.90;;;;;;;;;;5089074;28;20088;-79
2021/08/26 09:18:30;;;;;;;17.52;3.05;;;;;;;;;;5090963;28;20423;-79
2021/08/26 09:21:10;;;;;;;13.75;2.08;;;;;;;;;;5093154;28;20255;-80
2021/08/26 09:23:56;;;;;;;6.85;1.70;;;;;;;;;;5088419;28;20048;-80
2021/08/26 09:26:23;;;;;;;4.35;1.23;;;;;;;;;;5091337;28;20083;-80
2021/08/26 09:28:51;;;;;;;8.40;1.55;;;;;;;;;;5089445;28;20113;-80
2021/08/26 09:31:23;;;;;;;8.63;1.52;;;;;;;;;;5090927;28;20044;-80
2021/08/26 09:34:00;;;;;;;6.45;1.20;;;;;;;;;;5092187;28;20047;-80
2021/08/26 09:36:28;;;;;;;6.20;0.98;;;;;;;;;;5092291;28;20154;-80
2021/08/26 09:39:05;;;;;;;7.70;1.83;;;;;;;;;;5091412;28;20071;-79
2021/08/26 09:41:35;;;;;;;7.68;0.98;;;;;;;;;;5093304;28;20048;-80
2021/08/26 09:44:02;;;;;;;3.47;0.70;;;;;;;;;;5095645;28;20040;-81
2021/08/26 09:46:30;;;;;;;3.08;0.60;;;;;;;;;;5094665;28;20055;-81
2021/08/26 09:49:01;;;;;;;2.92;0.95;;;;;;;;;;5093037;28;20432;-81
2021/08/26 09:51:27;;;;;;;5.78;0.93;;;;;;;;;;5095087;28;20090;-81
2021/08/26 09:53:54;;;;;;;6.95;1.10;;;;;;;;;;5092110;28;20094;-81
2021/08/26 09:56:20;;;;;;;5.90;1.42;;;;;;;;;;5093090;28;20070;-82
2021/08/26 09:58:59;;;;;;;4.75;1.30;;;;;;;;;;5094737;28;20086;-81
2021/08/26 10:01:25;;;;;;;6.03;1.40;;;;;;;;;;5086453;28;20586;-82
2021/08/26 10:03:52;;;;;;;8.07;1.60;;;;;;;;;;5090699;28;20040;-82
2021/08/26 10:06:26;;;;;;;5.60;0.90;;;;;;;;;;5129996;27;20448;-80
2021/08/26 10:08:53;;;;;;;5.70;0.80;;;;;;;;;;5105803;28;20054;-81
2021/08/26 10:11:20;;;;;;;7.95;0.93;;;;;;;;;;5103297;28;20056;-82
2021/08/26 10:13:50;;;;;;;4.25;1.05;;;;;;;;;;5080458;28;20136;-81
2021/08/26 10:16:16;;;;;;;7.50;1.20;;;;;;;;;;5083022;28;20149;-81
2021/08/26 10:18:43;;;;;;;5.78;1.13;;;;;;;;;;5089822;28;20090;-82
2021/08/26 10:21:10;;;;;;;12.55;1.27;;;;;;;;;;5089238;28;20051;-82
2021/08/26 10:23:42;;;;;;;5.13;1.40;;;;;;;;;;5105048;27;20201;-83
2021/08/26 10:26:16;;;;;;;6.43;1.27;;;;;;;;;;5072006;28;20487;-82
2021/08/26 10:28:43;;;;;;;4.93;1.17;;;;;;;;;;5071647;28;20066;-81
2021/08/26 10:31:29;;;;;;;9.23;0.85;;;;;;;;;;5072489;28;20110;-82
2021/08/26 10:34:13;;;;;;;12.65;1.10;;;;;;;;;;5086289;28;20287;-82
2021/08/26 10:36:43;;;;;;;6.47;1.10;;;;;;;;;;5088069;28;20143;-81
2021/08/26 10:39:24;;;;;;;13.05;1.67;;;;;;;;;;5122895;27;20070;-81
2021/08/26 10:41:51;;;;;;;9.57;1.48;;;;;;;;;;5087264;28;20075;-81
2021/08/26 10:44:18;;;;;;;8.27;2.05;;;;;;;;;;5087656;28;20044;-80
2021/08/26 10:46:49;;;;;;;4.22;0.88;;;;;;;;;;5090334;28;20196;-82
2021/08/26 10:49:16;;;;;;;3.55;1.33;;;;;;;;;;5074528;28;20147;-82
2021/08/26 10:51:44;;;;;;;6.32;1.30;;;;;;;;;;5068175;28;20416;-82
2021/08/26 10:54:35;;;;;;;6.28;1.45;;;;;;;;;;5068683;28;20211;-82
2021/08/26 10:57:25;;;;;;;9.43;1.52;;;;;;;;;;5068441;28;20040;-81
2021/08/26 10:59:52;;;;;;;4.75;0.75;;;;;;;;;;5077938;28;20083;-81
2021/08/26 11:02:39;;;;;;;4.93;0.80;;;;;;;;;;5091649;28;20044;-82
2021/08/26 11:05:28;;;;;;;4.55;1.10;;;;;;;;;;5086284;28;20136;-83
2021/08/26 11:07:54;;;;;;;4.07;0.63;;;;;;;;;;5108979;28;20247;-81
2021/08/26 11:10:24;;;;;;;5.47;1.05;;;;;;;;;;5101425;28;20082;-82
2021/08/26 11:13:13;;;;;;;2.55;0.63;;;;;;;;;;5121508;27;20102;-82
2021/08/26 11:15:40;;;;;;;6.65;0.77;;;;;;;;;;5076474;28;20057;-81
2021/08/26 11:18:26;;;;;;;4.50;0.77;;;;;;;;;;5088252;28;20032;-81
2021/08/26 11:20:53;;;;;;;6.47;0.80;;;;;;;;;;5085246;28;20401;-82
2021/08/26 11:23:19;;;;;;;2.10;0.60;;;;;;;;;;5079245;28;20139;-82
2021/08/26 11:25:56;;;;;;;4.15;0.70;;;;;;;;;;5118439;28;20047;-82
2021/08/26 11:28:26;;;;;;;6.63;0.90;;;;;;;;;;5119830;27;20165;-82
2021/08/26 11:30:53;;;;;;;1.88;0.52;;;;;;;;;;5074069;28;20088;-82
2021/08/26 11:33:29;;;;;;;2.05;0.60;;;;;;;;;;5079951;28;20084;-82
2021/08/26 11:35:58;;;;;;;6.82;0.75;;;;;;;;;;5085617;28;20108;-82
2021/08/26 11:38:25;;;;;;;4.88;0.40;;;;;;;;;;5072921;28;20175;-82
2021/08/26 11:41:01;;;;;;;1.85;0.50;;;;;;;;;;5106490;28;20106;-83
2021/08/26 11:43:50;;;;;;;3.00;0.90;;;;;;;;;;5072997;28;20266;-82
2021/08/26 11:46:17;;;;;;;4.93;0.70;;;;;;;;;;5088939;28;20137;-83
2021/08/26 11:48:48;;;;;;;2.03;0.45;;;;;;;;;;5105514;28;20073;-84
2021/08/26 11:51:23;;;;;;;5.63;1.40;;;;;;;;;;5140291;27;20048;-82
2021/08/26 11:53:50;;;;;;;5.45;0.88;;;;;;;;;;5090791;28;20048;-82
2021/08/26 11:56:16;;;;;;;3.58;0.50;;;;;;;;;;5072577;28;20048;-83
2021/08/26 11:58:43;;;;;;;7.07;0.80;;;;;;;;;;5070628;28;20068;-82
2021/08/26 12:01:19;;;;;;;6.70;0.73;;;;;;;;;;5084417;28;20048;-83
2021/08/26 12:03:53;;;;;;;5.50;0.70;;;;;;;;;;5092014;28;20048;-82
2021/08/26 12:06:20;;;;;;;7.55;0.70;;;;;;;;;;5092099;28;20249;-83
2021/08/26 12:08:48;;;;;;;5.10;0.80;;;;;;;;;;5089574;28;20067;-83
2021/08/26 12:11:23;;;;;;;6.85;0.82;;;;;;;;;;5090532;28;20311;-83
2021/08/26 12:13:50;;;;;;;3.83;0.80;;;;;;;;;;5089937;28;20432;-83
2021/08/26 12:16:27;;;;;;;7.25;0.57;;;;;;;;;;5085426;28;20051;-82
2021/08/26 12:18:54;;;;;;;7.05;0.60;;;;;;;;;;5090643;28;20109;-83
2021/08/26 12:21:21;;;;;;;3.08;0.50;;;;;;;;;;5092807;28;20059;-83
2021/08/26 12:23:49;;;;;;;4.63;0.57;;;;;;;;;;5092396;28;20048;-83
2021/08/26 12:26:17;;;;;;;2.78;0.63;;;;;;;;;;5101965;28;20151;-83
2021/08/26 12:28:46;;;;;;;3.25;0.73;;;;;;;;;;5100446;28;20101;-83
2021/08/26 12:31:13;;;;;;;3.25;0.65;;;;;;;;;;5127969;27;20082;-83
2021/08/26 12:33:59;;;;;;;3.75;0.60;;;;;;;;;;5090710;28;20047;-83
2021/08/26 12:36:25;;;;;;;7.97;1.00;;;;;;;;;;5102434;28;20172;-83
2021/08/26 12:39:30;;;;;;;3.45;0.52;;;;;;;;;;5088932;28;20304;-83
2021/08/26 12:42:08;;;;;;;3.95;0.70;;;;;;;;;;5096061;28;20183;-83
2021/08/26 12:44:39;;;;;;;5.20;0.98;;;;;;;;;;5104468;28;20066;-83
2021/08/26 12:47:24;;;;;;;5.63;0.65;;;;;;;;;;5101171;28;20214;-83
2021/08/26 12:49:52;;;;;;;5.30;0.82;;;;;;;;;;5082909;28;20083;-83
2021/08/26 12:52:32;;;;;;;5.55;0.80;;;;;;;;;;5078460;28;20048;-83
2021/08/26 12:55:09;;;;;;;4.50;1.02;;;;;;;;;;5071590;28;20068;-82
2021/08/26 12:57:38;;;;;;;3.35;1.02;;;;;;;;;;5076680;28;20044;-83
2021/08/26 13:00:05;;;;;;;3.35;0.98;;;;;;;;;;5094658;28;20246;-83
2021/08/26 13:03:00;;;;;;;2.40;0.70;;;;;;;;;;5092713;28;20265;-83
2021/08/26 13:05:28;;;;;;;7.68;1.10;;;;;;;;;;5098718;28;20055;-83
2021/08/26 13:07:58;;;;;;;9.20;1.02;;;;;;;;;;5093084;28;20416;-83
2021/08/26 13:10:25;;;;;;;7.28;1.30;;;;;;;;;;5092593;28;20079;-83
2021/08/26 13:13:08;;;;;;;7.10;1.30;;;;;;;;;;5093003;28;20048;-83
2021/08/26 13:15:35;;;;;;;5.97;0.82;;;;;;;;;;5097462;28;20089;-83
2021/08/26 13:18:02;;;;;;;7.85;1.15;;;;;;;;;;5092216;28;20044;-83
2021/08/26 13:20:28;;;;;;;6.75;0.90;;;;;;;;;;5101720;28;20039;-84
2021/08/26 13:22:58;;;;;;;5.75;0.70;;;;;;;;;;5096503;28;20120;-85
2021/08/26 13:25:25;;;;;;;3.20;0.68;;;;;;;;;;5125091;28;20103;-84
2021/08/26 13:27:51;;;;;;;3.63;0.70;;;;;;;;;;5080541;28;20048;-82
2021/08/26 13:30:21;;;;;;;5.07;0.82;;;;;;;;;;5074420;28;20477;-82
2021/08/26 13:32:48;;;;;;;3.33;0.82;;;;;;;;;;5089274;28;20048;-83
2021/08/26 13:35:15;;;;;;;4.43;0.98;;;;;;;;;;5095145;28;20052;-83
2021/08/26 13:37:46;;;;;;;10.68;0.90;;;;;;;;;;5093728;28;20078;-84
2021/08/26 13:40:14;;;;;;;4.88;1.02;;;;;;;;;;5092653;28;20271;-84
2021/08/26 13:42:41;;;;;;;7.25;0.80;;;;;;;;;;5081322;28;20079;-83
2021/08/26 13:45:08;;;;;;;5.82;1.08;;;;;;;;;;5105143;28;20098;-83
2021/08/26 13:47:35;;;;;;;7.78;0.95;;;;;;;;;;5071666;28;20106;-83
2021/08/26 13:50:22;;;;;;;4.28;1.08;;;;;;;;;;5070959;28;20049;-83
2021/08/26 13:52:48;;;;;;;5.90;0.80;;;;;;;;;;5073983;28;20083;-83
2021/08/26 13:55:15;;;;;;;6.22;0.90;;;;;;;;;;5100469;28;20047;-84
2021/08/26 13:57:47;;;;;;;7.22;1.10;;;;;;;;;;5106998;28;20142;-84
2021/08/26 14:00:15;;;;;;;8.35;0.95;;;;;;;;;;5107868;28;20044;-84
2021/08/26 14:02:41;;;;;;;4.15;0.77;;;;;;;;;;5108324;28;20075;-82
2021/08/26 14:05:12;;;;;;;7.43;0.98;;;;;;;;;;5107673;28;20070;-83
2021/08/26 14:07:41;;;;;;;6.75;0.90;;;;;;;;;;5109880;28;20048;-84
2021/08/26 14:10:08;;;;;;;5.20;1.10;;;;;;;;;;5100175;28;20048;-84
2021/08/26 14:12:40;;;;;;;5.63;1.27;;;;;;;;;;5096901;28;20356;-84
2021/08/26 14:15:07;;;;;;;4.78;0.70;;;;;;;;;;5097732;28;20079;-84
2021/08/26 14:17:34;;;;;;;4.82;0.80;;;;;;;;;;5109073;28;20040;-84
2021/08/26 14:20:01;;;;;;;7.10;1.23;;;;;;;;;;5122085;28;20097;-84
2021/08/26 14:22:30;;;;;;;5.47;0.90;;;;;;;;;;5118705;28;20047;-83
2021/08/26 14:24:57;;;;;;;8.43;1.10;;;;;;;;;;5094145;28;20389;-84
2021/08/26 14:27:23;;;;;;;5.72;0.95;;;;;;;;;;5104076;28;20055;-84
2021/08/26 14:29:50;;;;;;;10.30;1.67;;;;;;;;;;5128510;28;20051;-84
2021/08/26 14:32:16;;;;;;;10.00;1.35;;;;;;;;;;5107807;28;20287;-84
2021/08/26 14:34:44;;;;;;;7.18;0.95;;;;;;;;;;5090605;28;20092;-84
2021/08/26 14:37:12;;;;;;;5.82;1.15;;;;;;;;;;5088408;28;20052;-84
2021/08/26 14:39:40;;;;;;;6.32;0.95;;;;;;;;;;5091380;28;20175;-84
2021/08/26 14:42:07;;;;;;;6.57;0.95;;;;;;;;;;5091305;28;20431;-83
2021/08/26 14:44:39;;;;;;;2.92;0.80;;;;;;;;;;5092483;28;20109;-83
2021/08/26 14:47:06;;;;;;;5.40;0.85;;;;;;;;;;5139290;27;20238;-84
2021/08/26 14:49:36;;;;;;;8.52;1.23;;;;;;;;;;5106832;28;20075;-84
2021/08/26 14:52:04;;;;;;;6.50;0.95;;;;;;;;;;5090051;28;20305;-84